.
WxDataArchive / Data Records for 2013-05-03
2013-05-02 May 2013 2013-05-04

Data Records for Friday, 03 May 2013

Time	Temp	Chill	HIndex	Humid	Dewpt	 Wind 	HiWind	WindDir	Rain 	Barom 
-----	----	-----	------	-----	-----	------	------	-------	-----	----- 
00:00	62.1	62.1	62.1	74	53.7	0	0	---	0.00	30.071 
00:05	62.1	62.1	62.1	74	53.7	0	0	---	0.00	30.071 
00:10	62.1	62.1	62.1	74	53.7	0	0	---	0.00	30.071 
00:15	62.0	62.0	62.0	74	53.6	0	0	---	0.00	30.069 
00:20	62.0	62.0	62.0	75	54.0	0	0	---	0.00	30.069 
00:25	62.0	62.0	62.0	75	54.0	0	0	---	0.00	30.069 
00:30	62.0	62.0	62.0	75	54.0	0	0	---	0.00	30.067 
00:35	62.0	62.0	62.0	75	54.0	0	0	---	0.00	30.067 
00:40	62.1	62.1	62.1	75	54.1	0	0	---	0.00	30.067 
00:45	62.1	62.1	62.1	75	54.1	0	0	---	0.00	30.063 
00:50	62.1	62.1	62.1	75	54.1	0	0	---	0.00	30.063 
00:55	62.1	62.1	62.1	75	54.1	0	0	---	0.00	30.063 
01:00	62.0	62.0	62.0	76	54.3	0	0	---	0.00	30.057 
01:05	62.0	62.0	62.0	76	54.3	0	0	---	0.00	30.057 
01:10	62.0	62.0	62.0	76	54.3	0	0	---	0.00	30.057 
01:15	62.0	62.0	62.0	75	54.0	0	0	---	0.00	30.055 
01:20	62.1	62.1	62.1	75	54.1	0	0	---	0.00	30.055 
01:25	62.3	62.3	62.3	74	53.9	0	0	---	0.00	30.055 
01:30	62.3	62.3	62.3	74	53.9	0	0	---	0.00	30.052 
01:35	62.3	62.3	62.3	74	53.9	0	0	---	0.00	30.052 
01:40	62.3	62.3	62.3	74	53.9	0	0	---	0.00	30.052 
01:45	62.1	62.1	62.1	74	53.7	0	0	---	0.00	30.051 
01:50	62.0	62.0	62.0	74	53.6	0	0	---	0.00	30.051 
01:55	61.8	61.8	61.8	75	53.8	0	0	---	0.00	30.051 
02:00	61.6	61.6	61.6	75	53.6	0	0	---	0.00	30.046 
02:05	61.5	61.5	61.5	76	53.9	0	0	---	0.00	30.046 
02:10	61.3	61.3	61.3	76	53.7	0	0	---	0.00	30.046 
02:15	61.2	61.2	61.2	76	53.6	0	0	---	0.00	30.041 
02:20	61.0	61.0	61.0	77	53.7	0	0	---	0.00	30.041 
02:25	60.9	60.9	60.9	77	53.6	0	0	---	0.00	30.041 
02:30	60.7	60.7	60.7	78	53.8	0	0	---	0.00	30.037 
02:35	60.5	60.5	60.5	78	53.6	0	0	---	0.00	30.037 
02:40	60.4	60.4	60.4	78	53.5	0	0	---	0.00	30.037 
02:45	60.2	60.2	60.2	79	53.7	0	0	---	0.00	30.038 
02:50	60.4	60.4	60.4	79	53.9	0	0	---	0.00	30.038 
02:55	60.4	60.4	60.4	79	53.9	0	0	---	0.00	30.038 
03:00	60.4	60.4	60.4	79	53.9	0	0	---	0.00	30.037 
03:05	60.4	60.4	60.4	79	53.9	0	0	---	0.00	30.037 
03:10	60.4	60.4	60.4	79	53.9	0	0	---	0.00	30.037 
03:15	60.4	60.4	60.4	79	53.9	0	0	---	0.00	30.034 
03:20	60.4	60.4	60.4	79	53.9	0	0	---	0.00	30.034 
03:25	60.2	60.2	60.2	79	53.7	0	0	---	0.00	30.034 
03:30	60.1	60.1	60.1	79	53.6	0	0	---	0.00	30.027 
03:35	60.1	60.1	60.1	79	53.6	0	0	---	0.00	30.027 
03:40	59.9	59.9	59.9	80	53.7	0	0	---	0.00	30.027 
03:45	59.9	59.9	59.9	80	53.7	0	0	---	0.00	30.024 
03:50	59.8	59.8	59.8	80	53.6	0	0	---	0.00	30.024 
03:55	59.6	59.6	59.6	80	53.4	0	0	---	0.00	30.024 
04:00	59.5	59.5	59.5	80	53.3	0	0	---	0.00	30.023 
04:05	59.3	59.3	59.3	81	53.5	0	0	---	0.00	30.023 
04:10	59.3	59.3	59.3	81	53.5	0	0	---	0.00	30.023 
04:15	59.5	59.5	59.5	81	53.7	0	2	112	0.00	30.023 
04:20	59.6	59.6	59.6	81	53.8	0	1	112	0.00	30.023 
04:25	59.8	59.8	59.8	81	54.0	0	2	112	0.00	30.023 
04:30	59.8	59.8	59.8	81	54.0	0	2	112	0.00	30.025 
04:35	59.9	59.9	59.9	81	54.1	0	3	112	0.00	30.025 
04:40	59.9	59.9	59.9	81	54.1	0	1	112	0.00	30.025 
04:45	59.8	59.8	59.8	81	54.0	0	0	---	0.00	30.026 
04:50	59.6	59.6	59.6	81	53.8	0	1	112	0.00	30.026 
04:55	59.5	59.5	59.5	82	54.0	0	1	112	0.00	30.026 
05:00	59.5	59.5	59.5	82	54.0	0	0	---	0.00	30.025 
05:05	59.3	59.3	59.3	82	53.8	0	1	112	0.00	30.025 
05:10	59.2	59.2	59.2	82	53.7	0	0	---	0.00	30.025 
05:15	58.9	58.9	58.9	83	53.7	0	0	---	0.00	30.027 
05:20	58.7	58.7	58.7	83	53.5	0	0	---	0.00	30.027 
05:25	58.6	58.6	58.6	83	53.4	0	0	---	0.00	30.027 
05:30	58.6	58.6	58.6	84	53.8	0	0	---	0.00	30.027 
05:35	58.6	58.6	58.6	84	53.8	0	1	112	0.00	30.027 
05:40	58.6	58.6	58.6	84	53.8	0	0	---	0.00	30.027 
05:45	58.7	58.7	58.7	84	53.9	0	0	---	0.00	30.026 
05:50	58.7	58.7	58.7	84	53.9	0	0	---	0.00	30.026 
05:55	58.9	58.9	58.9	84	54.1	0	1	112	0.00	30.026 
06:00	58.9	58.9	58.9	84	54.1	0	1	112	0.00	30.027 
06:05	58.9	58.9	58.9	84	54.1	0	1	112	0.00	30.027 
06:10	59.0	59.0	59.0	84	54.2	0	1	112	0.00	30.027 
06:15	59.2	59.2	59.2	84	54.4	0	2	112	0.00	30.029 
06:20	59.3	59.3	59.3	83	54.1	0	1	112	0.00	30.029 
06:25	59.3	59.3	59.3	83	54.1	0	2	112	0.00	30.029 
06:30	59.3	59.3	59.3	83	54.1	0	1	112	0.00	30.032 
06:35	59.5	59.5	59.5	83	54.3	0	2	112	0.00	30.032 
06:40	59.5	59.5	59.5	83	54.3	0	1	112	0.00	30.032 
06:45	59.5	59.5	59.5	83	54.3	0	1	112	0.00	30.037 
06:50	59.6	59.6	59.6	83	54.4	0	3	112	0.00	30.037 
06:55	59.8	59.8	59.8	83	54.6	0	2	112	0.00	30.037 
07:00	59.9	59.9	59.9	83	54.7	0	1	112	0.00	30.039 
07:05	60.1	60.1	60.1	82	54.6	0	1	112	0.00	30.039 
07:10	60.2	60.2	60.2	82	54.7	0	1	112	0.00	30.039 
07:15	60.4	60.4	60.4	82	54.9	0	0	---	0.00	30.041 
07:20	60.5	60.5	60.5	81	54.6	0	1	112	0.00	30.041 
07:25	60.7	60.7	60.7	81	54.8	0	2	112	0.00	30.041 
07:30	60.9	60.9	60.9	81	55.0	1	4	112	0.00	30.040 
07:35	61.0	61.0	61.0	80	54.8	0	2	90	0.00	30.040 
07:40	61.3	61.3	61.3	80	55.1	1	4	90	0.00	30.040 
07:45	61.5	61.5	61.5	80	55.3	2	4	90	0.00	30.041 
07:50	61.5	61.5	61.5	80	55.3	1	4	90	0.00	30.041 
07:55	61.6	61.6	61.6	80	55.4	1	3	90	0.00	30.041 
08:00	61.8	61.8	61.8	79	55.2	1	5	90	0.00	30.041 
08:05	62.3	62.3	62.3	78	55.3	1	5	90	0.00	30.041 
08:10	63.1	63.1	63.1	77	55.8	1	4	90	0.00	30.041 
08:15	63.9	63.9	63.9	75	55.8	1	5	90	0.00	30.041 
08:20	64.8	64.8	64.8	74	56.3	1	3	90	0.00	30.041 
08:25	65.5	65.5	65.5	71	55.8	1	6	90	0.00	30.041 
08:30	66.1	66.1	66.1	69	55.6	1	4	90	0.00	30.040 
08:35	66.6	66.6	66.6	69	56.1	1	3	90	0.00	30.040 
08:40	66.9	66.9	66.9	67	55.6	2	6	90	0.00	30.040 
08:45	67.3	67.3	67.3	66	55.5	1	4	90	0.00	30.039 
08:50	67.8	67.8	67.8	65	55.6	1	3	90	0.00	30.039 
08:55	68.1	68.1	68.1	64	55.5	3	7	90	0.00	30.039 
09:00	68.3	68.3	68.3	64	55.6	2	7	90	0.00	30.037 
09:05	68.6	68.6	68.6	63	55.5	2	5	90	0.00	30.037 
09:10	69.1	69.1	69.1	62	55.5	2	6	90	0.00	30.037 
09:15	69.3	69.3	69.3	62	55.7	2	7	90	0.00	30.038 
09:20	69.6	69.6	69.6	60	55.1	2	7	135	0.00	30.038 
09:25	69.6	69.6	69.6	60	55.1	2	6	90	0.00	30.038 
09:30	69.8	69.8	69.8	60	55.3	2	5	90	0.00	30.036 
09:35	69.9	69.9	69.9	59	54.9	2	6	90	0.00	30.036 
09:40	70.1	70.1	70.1	60	55.6	2	6	112	0.00	30.036 
09:45	70.3	70.3	70.3	59	55.3	2	6	90	0.00	30.037 
09:50	70.3	70.3	70.3	60	55.7	1	5	68	0.00	30.037 
09:55	70.6	70.6	70.6	58	55.1	2	5	90	0.00	30.037 
10:00	71.1	71.1	71.1	59	56.0	2	4	112	0.00	30.034 
10:05	71.3	71.3	71.3	58	55.7	2	5	112	0.00	30.034 
10:10	71.5	71.5	71.5	58	55.9	1	4	90	0.00	30.034 
10:15	71.1	71.1	71.1	58	55.6	1	7	90	0.00	30.031 
10:20	70.9	70.9	70.9	59	55.8	1	5	90	0.00	30.031 
10:25	71.1	71.1	71.1	58	55.6	1	4	90	0.00	30.031 
10:30	71.1	71.1	71.1	58	55.6	2	7	112	0.00	30.031 
10:35	71.3	71.3	71.3	58	55.7	3	5	90	0.00	30.031 
10:40	71.6	71.6	71.6	58	56.0	1	6	90	0.00	30.031 
10:45	72.3	72.3	72.3	57	56.2	2	5	112	0.00	30.030 
10:50	72.3	72.3	72.3	58	56.7	3	9	90	0.00	30.030 
10:55	72.7	72.7	72.7	57	56.6	1	6	90	0.00	30.030 
11:00	73.3	73.3	73.3	56	56.6	2	6	90	0.00	30.027 
11:05	73.7	73.7	73.7	56	57.0	1	4	90	0.00	30.027 
11:10	73.9	73.9	73.9	57	57.7	2	6	112	0.00	30.027 
11:15	73.9	73.9	73.9	55	56.7	2	5	90	0.00	30.022 
11:20	73.9	73.9	73.9	57	57.7	2	5	112	0.00	30.022 
11:25	74.2	74.2	74.2	54	56.5	1	4	112	0.00	30.022 
11:30	74.0	74.0	74.0	55	56.8	2	7	112	0.00	30.022 
11:35	74.2	74.2	74.2	55	57.0	1	4	112	0.00	30.022 
11:40	74.6	74.6	74.6	53	56.3	2	6	112	0.00	30.022 
11:45	74.9	74.9	74.9	52	56.1	2	6	90	0.00	30.023 
11:50	75.1	75.1	77.6	52	56.3	2	5	90	0.00	30.023 
11:55	75.1	75.1	77.6	52	56.3	3	6	112	0.00	30.023 
12:00	75.1	75.1	77.6	53	56.8	2	5	90	0.00	30.021 
12:05	75.1	75.1	77.6	53	56.8	2	6	90	0.00	30.021 
12:10	75.3	75.3	77.7	53	57.0	3	7	90	0.00	30.021 
12:15	75.3	75.3	77.7	54	57.5	3	10	112	0.00	30.020 
12:20	75.1	75.1	77.6	53	56.8	4	9	90	0.00	30.020 
12:25	74.9	74.9	74.9	53	56.6	3	7	90	0.00	30.020 
12:30	75.3	75.3	77.7	54	57.5	2	6	90	0.00	30.015 
12:35	75.4	75.4	77.8	52	56.5	3	6	90	0.00	30.015 
12:40	75.4	75.4	77.8	51	56.0	3	6	90	0.00	30.015 
12:45	75.6	75.6	77.9	50	55.6	3	7	90	0.00	30.007 
12:50	75.4	75.4	77.8	47	53.7	3	7	112	0.00	30.007 
12:55	75.6	75.6	77.9	47	53.9	3	7	90	0.00	30.007 
13:00	75.6	75.6	77.9	48	54.5	3	10	112	0.00	30.005 
13:05	75.4	75.4	77.8	50	55.4	3	7	90	0.00	30.005 
13:10	75.6	75.6	77.9	49	55.1	2	7	112	0.00	30.005 
13:15	76.0	76.0	78.1	49	55.4	3	11	135	0.00	29.999 
13:20	75.4	75.4	77.8	49	54.9	4	11	90	0.00	29.999 
13:25	75.4	75.4	77.8	51	56.0	3	5	90	0.00	29.999 
13:30	75.4	75.4	77.8	47	53.7	4	9	90	0.00	30.001 
13:35	75.3	75.3	77.7	50	55.4	3	10	112	0.00	30.001 
13:40	75.3	75.3	77.7	49	54.8	3	11	90	0.00	30.001 
13:45	75.3	75.3	77.7	47	53.7	3	9	112	0.00	29.997 
13:50	75.4	75.4	77.8	49	54.9	3	6	112	0.00	29.997 
13:55	75.4	75.4	77.8	46	53.2	2	6	90	0.00	29.997 
14:00	75.6	75.6	77.9	47	53.9	3	7	90	0.00	29.991 
14:05	75.6	75.6	77.9	47	53.9	2	7	112	0.00	29.991 
14:10	75.6	75.6	77.9	47	53.9	4	10	90	0.00	29.991 
14:15	75.6	75.6	77.8	46	53.3	5	16	90	0.00	29.990 
14:20	75.6	75.6	77.9	48	54.5	3	7	112	0.00	29.990 
14:25	76.0	76.0	78.0	44	52.5	2	5	90	0.00	29.990 
14:30	76.0	76.0	78.0	46	53.7	3	7	112	0.00	29.990 
14:35	76.0	76.0	78.0	45	53.1	3	9	90	0.00	29.990 
14:40	75.6	75.6	77.7	42	50.9	5	14	112	0.00	29.990 
14:45	75.6	75.6	77.8	43	51.5	3	8	90	0.00	29.987 
14:50	76.0	76.0	77.9	43	51.9	4	10	90	0.00	29.987 
14:55	76.1	76.1	78.0	43	52.0	3	7	90	0.00	29.987 
15:00	76.5	76.5	78.1	43	52.3	2	9	90	0.00	29.979 
15:05	76.5	76.5	78.1	43	52.3	4	9	112	0.00	29.979 
15:10	76.5	76.5	78.1	42	51.7	3	10	90	0.00	29.979 
15:15	76.5	76.5	78.0	40	50.4	4	9	112	0.00	29.975 
15:20	76.5	76.5	78.0	40	50.4	3	7	112	0.00	29.975 
15:25	76.5	76.5	78.1	41	51.0	3	11	112	0.00	29.975 
15:30	76.7	76.7	78.1	39	49.9	3	10	112	0.00	29.973 
15:35	76.7	76.7	78.1	39	49.9	5	11	112	0.00	29.973 
15:40	76.7	76.7	78.0	37	48.4	3	6	112	0.00	29.973 
15:45	76.5	76.5	77.9	38	49.0	3	7	90	0.00	29.968 
15:50	76.7	76.7	78.0	38	49.2	2	5	90	0.00	29.968 
15:55	76.5	76.5	77.9	38	49.0	4	10	112	0.00	29.968 
16:00	76.3	76.3	77.8	38	48.8	2	6	90	0.00	29.963 
16:05	76.3	76.3	77.8	38	48.8	2	5	135	0.00	29.963 
16:10	76.5	76.5	77.8	36	47.5	3	8	90	0.00	29.963 
16:15	76.3	76.3	77.8	38	48.8	3	7	112	0.00	29.961 
16:20	76.3	76.3	77.8	37	48.1	3	9	90	0.00	29.961 
16:25	76.1	76.1	77.8	39	49.3	4	8	90	0.00	29.961 
16:30	76.3	76.3	77.8	37	48.1	3	7	90	0.00	29.959 
16:35	76.7	76.7	77.8	34	46.2	3	10	90	0.00	29.959 
16:40	77.0	77.0	77.9	33	45.7	3	6	90	0.00	29.959 
16:45	77.2	77.2	78.0	34	46.6	4	11	112	0.00	29.956 
16:50	76.8	76.8	77.8	33	45.5	4	9	112	0.00	29.956 
16:55	76.8	76.8	77.9	35	47.1	4	10	112	0.00	29.956 
17:00	76.8	76.8	77.8	34	46.3	3	10	112	0.00	29.952 
17:05	77.0	77.0	77.9	33	45.7	3	6	90	0.00	29.952 
17:10	77.0	77.0	77.8	32	44.9	4	9	112	0.00	29.952 
17:15	77.0	77.0	77.9	33	45.7	4	9	90	0.00	29.949 
17:20	76.8	76.8	77.7	32	44.7	4	11	90	0.00	29.949 
17:25	76.8	76.8	77.8	34	46.3	4	10	112	0.00	29.949 
17:30	76.8	76.8	77.7	32	44.7	3	6	90	0.00	29.949 
17:35	76.7	76.7	77.6	31	43.8	3	7	112	0.00	29.949 
17:40	76.3	76.3	77.5	31	43.4	3	9	90	0.00	29.949 
17:45	76.0	76.0	77.4	32	44.0	2	6	112	0.00	29.950 
17:50	76.1	76.1	77.4	32	44.1	3	7	112	0.00	29.950 
17:55	76.1	76.1	77.4	32	44.1	2	6	90	0.00	29.950 
18:00	76.1	76.1	77.4	32	44.1	3	6	112	0.00	29.949 
18:05	76.1	76.1	77.6	34	45.7	2	4	135	0.00	29.949 
18:10	76.1	76.1	77.6	35	46.4	2	5	90	0.00	29.949 
18:15	76.1	76.1	77.6	34	45.7	4	11	90	0.00	29.947 
18:20	76.1	76.1	77.6	34	45.7	3	5	90	0.00	29.947 
18:25	76.0	76.0	77.5	34	45.6	3	7	112	0.00	29.947 
18:30	76.0	76.0	77.4	32	44.0	3	9	112	0.00	29.946 
18:35	75.8	75.8	77.4	33	44.6	3	13	90	0.00	29.946 
18:40	75.4	75.4	77.3	33	44.3	3	9	90	0.00	29.946 
18:45	75.3	75.3	77.4	35	45.7	2	7	112	0.00	29.947 
18:50	75.1	75.1	77.2	34	44.8	2	5	112	0.00	29.947 
18:55	74.9	74.9	74.9	34	44.6	2	4	112	0.00	29.947 
19:00	74.9	74.9	74.9	35	45.4	3	6	112	0.00	29.947 
19:05	74.9	74.9	74.9	34	44.6	3	7	112	0.00	29.947 
19:10	74.6	74.6	74.6	32	42.8	3	10	112	0.00	29.947 
19:15	74.4	74.4	74.4	34	44.2	2	5	90	0.00	29.949 
19:20	74.0	74.0	74.0	33	43.1	2	5	112	0.00	29.949 
19:25	73.9	73.9	73.9	35	44.5	2	9	90	0.00	29.949 
19:30	73.7	73.7	73.7	35	44.3	2	6	112	0.00	29.946 
19:35	73.7	73.7	73.7	35	44.3	2	7	90	0.00	29.946 
19:40	73.5	73.5	73.5	36	44.9	1	4	90	0.00	29.946 
19:45	73.5	73.5	73.5	36	44.9	1	5	90	0.00	29.948 
19:50	73.3	73.3	73.3	37	45.4	2	4	112	0.00	29.948 
19:55	73.2	73.2	73.2	38	46.1	2	7	90	0.00	29.948 
20:00	73.0	73.0	73.0	38	45.9	1	3	90	0.00	29.956 
20:05	72.8	72.8	72.8	39	46.4	1	4	90	0.00	29.956 
20:10	72.5	72.5	72.5	39	46.1	1	5	90	0.00	29.956 
20:15	72.3	72.3	72.3	40	46.6	1	4	90	0.00	29.954 
20:20	72.1	72.1	72.1	41	47.1	1	3	90	0.00	29.954 
20:25	72.0	72.0	72.0	42	47.6	1	3	90	0.00	29.954 
20:30	71.8	71.8	71.8	42	47.5	1	4	90	0.00	29.954 
20:35	71.5	71.5	71.5	43	47.8	1	5	90	0.00	29.954 
20:40	71.3	71.3	71.3	43	47.6	1	2	90	0.00	29.954 
20:45	70.9	70.9	70.9	44	47.9	1	5	90	0.00	29.958 
20:50	70.8	70.8	70.8	44	47.8	2	6	90	0.00	29.958 
20:55	70.8	70.8	70.8	45	48.4	2	5	90	0.00	29.958 
21:00	70.6	70.6	70.6	45	48.2	2	5	90	0.00	29.960 
21:05	70.4	70.4	70.4	45	48.0	2	4	90	0.00	29.960 
21:10	70.3	70.3	70.3	46	48.5	2	5	90	0.00	29.960 
21:15	69.9	69.9	69.9	45	47.6	1	5	135	0.00	29.966 
21:20	69.6	69.6	69.6	45	47.3	2	5	90	0.00	29.966 
21:25	69.6	69.6	69.6	43	46.1	2	6	90	0.00	29.966 
21:30	69.3	69.3	69.3	42	45.2	1	3	90	0.00	29.968 
21:35	69.1	69.1	69.1	42	45.0	2	4	90	0.00	29.968 
21:40	68.9	68.9	68.9	42	44.9	1	4	90	0.00	29.968 
21:45	68.8	68.8	68.8	42	44.8	1	4	90	0.00	29.970 
21:50	68.4	68.4	68.4	42	44.4	1	3	90	0.00	29.970 
21:55	68.3	68.3	68.3	43	44.9	1	3	90	0.00	29.970 
22:00	67.9	67.9	67.9	42	44.0	2	5	90	0.00	29.974 
22:05	67.8	67.8	67.8	41	43.2	2	5	90	0.00	29.974 
22:10	67.6	67.6	67.6	42	43.7	2	4	90	0.00	29.974 
22:15	67.4	67.4	67.4	42	43.5	1	5	90	0.00	29.973 
22:20	67.3	67.3	67.3	41	42.8	1	5	90	0.00	29.973 
22:25	67.3	67.3	67.3	41	42.8	1	4	90	0.00	29.973 
22:30	67.1	67.1	67.1	41	42.6	1	3	90	0.00	29.973 
22:35	67.1	67.1	67.1	40	42.0	2	5	90	0.00	29.973 
22:40	66.9	66.9	66.9	40	41.8	2	5	90	0.00	29.973 
22:45	66.8	66.8	66.8	41	42.3	1	3	90	0.00	29.973 
22:50	66.6	66.6	66.6	41	42.2	1	3	90	0.00	29.973 
22:55	66.4	66.4	66.4	41	42.0	2	5	90	0.00	29.973 
23:00	66.1	66.1	66.1	42	42.3	0	2	90	0.00	29.975 
23:05	65.8	65.8	65.8	43	42.7	0	2	90	0.00	29.975 
23:10	65.5	65.5	65.5	44	43.0	0	2	90	0.00	29.975 
23:15	65.0	65.0	65.0	46	43.7	0	2	90	0.00	29.973 
23:20	64.5	64.5	64.5	46	43.3	0	1	90	0.00	29.973 
23:25	64.0	64.0	64.0	47	43.4	0	2	90	0.00	29.973 
23:30	63.9	63.9	63.9	46	42.7	0	1	90	0.00	29.975 
23:35	63.7	63.7	63.7	47	43.1	0	2	90	0.00	29.975 
23:40	63.5	63.5	63.5	47	42.9	1	2	90	0.00	29.975 
23:45	63.4	63.4	63.4	47	42.8	1	3	90	0.00	29.975 
23:50	63.4	63.4	63.4	48	43.4	1	2	90	0.00	29.975 
23:55	63.2	63.2	63.2	48	43.2	1	4	90	0.00	29.975 

CoCoRaHS
IN-AL-39
A2 Web Hosting
Creative Commons License
GoDaddy
search engine by freefind advanced

loaded 2018-11-20 02:36:41 • last modified 2010-11-18 10:43:29
Privacy PolicyDisclaimer
• wx.awcolley.com is powered by PmWiki v.2002016 •
• all content (unless otherwise noted) © 2018 A W Colley